createdAt,value
2019-03-29T00:00:41.819Z,99.99
2019-03-29T00:01:41.835Z,99.99
2019-03-29T00:02:42.954Z,99.99
2019-03-29T00:03:41.669Z,99.99
2019-03-29T00:04:41.612Z,99.99
2019-03-29T00:05:41.569Z,99.99
2019-03-29T00:06:41.523Z,99.99
2019-03-29T00:07:42.014Z,99.99
2019-03-29T00:08:41.422Z,99.99
2019-03-29T00:09:41.374Z,99.99
2019-03-29T00:10:41.341Z,99.99
2019-03-29T00:11:41.280Z,99.99
2019-03-29T00:12:41.241Z,99.99
2019-03-29T00:13:41.208Z,99.99
2019-03-29T00:14:42.042Z,99.99
2019-03-29T00:15:41.104Z,99.99
2019-03-29T00:16:41.066Z,99.99
2019-03-29T00:17:41.029Z,99.99
2019-03-29T00:18:40.958Z,99.99
2019-03-29T00:19:40.916Z,99.99
2019-03-29T00:20:40.869Z,99.99
2019-03-29T00:21:40.817Z,99.99
2019-03-29T00:22:40.770Z,99.99
2019-03-29T00:23:40.717Z,99.99
2019-03-29T00:24:41.124Z,99.99
2019-03-29T00:25:40.621Z,99.99
2019-03-29T00:26:40.586Z,99.99
2019-03-29T00:27:40.535Z,99.99
2019-03-29T00:28:40.500Z,99.99
2019-03-29T00:29:40.440Z,99.99
2019-03-29T00:30:40.385Z,99.99
2019-03-29T00:31:40.346Z,99.99
2019-03-29T00:32:40.313Z,99.99
2019-03-29T00:33:40.244Z,99.99
2019-03-29T00:34:40.197Z,99.99
2019-03-29T00:35:40.157Z,99.99
2019-03-29T00:36:40.103Z,99.99
2019-03-29T00:37:52.833Z,99.99
2019-03-29T00:38:40.017Z,99.99
2019-03-29T00:39:40.313Z,99.99
2019-03-29T00:40:39.929Z,99.99
2019-03-29T00:41:39.875Z,99.99
2019-03-29T00:42:39.828Z,99.99
2019-03-29T00:43:39.799Z,99.99
2019-03-29T00:44:39.754Z,99.99
2019-03-29T00:45:39.692Z,99.99
2019-03-29T00:46:39.652Z,99.99
2019-03-29T00:47:39.606Z,99.99
2019-03-29T00:48:39.545Z,99.99
2019-03-29T00:49:40.298Z,99.99
2019-03-29T00:50:39.453Z,99.99
2019-03-29T00:51:39.397Z,99.99
2019-03-29T00:52:39.371Z,99.99
2019-03-29T00:53:39.313Z,99.99
2019-03-29T00:54:39.267Z,99.99
2019-03-29T00:55:39.215Z,99.99
2019-03-29T00:56:39.312Z,99.99
2019-03-29T00:57:39.113Z,99.99
2019-03-29T00:58:39.074Z,99.99
2019-03-29T00:59:39.035Z,99.99
2019-03-29T01:00:38.999Z,99.99
2019-03-29T01:01:38.977Z,99.99
2019-03-29T01:02:38.895Z,99.99
2019-03-29T01:03:38.840Z,99.99
2019-03-29T01:04:38.795Z,99.99
2019-03-29T01:05:38.743Z,99.99
2019-03-29T01:06:39.221Z,99.99
2019-03-29T01:07:38.655Z,99.99
2019-03-29T01:08:38.607Z,99.99
2019-03-29T01:09:38.556Z,99.99
2019-03-29T01:10:38.508Z,99.99
2019-03-29T01:11:38.453Z,99.99
2019-03-29T01:12:38.420Z,99.99
2019-03-29T01:13:38.371Z,99.99
2019-03-29T01:14:38.318Z,99.99
2019-03-29T01:15:38.284Z,99.99
2019-03-29T01:16:38.216Z,99.99
2019-03-29T01:17:38.168Z,99.99
2019-03-29T01:18:38.314Z,99.99
2019-03-29T01:19:38.172Z,99.99
2019-03-29T01:20:38.028Z,99.99
2019-03-29T01:21:37.980Z,99.99
2019-03-29T01:22:37.933Z,99.99
2019-03-29T01:23:37.886Z,99.99
2019-03-29T01:24:37.859Z,99.99
2019-03-29T01:25:37.799Z,99.99
2019-03-29T01:26:37.765Z,99.99
2019-03-29T01:27:37.710Z,99.99
2019-03-29T01:28:38.559Z,99.99
2019-03-29T01:29:37.623Z,99.99
2019-03-29T01:30:37.569Z,99.99
2019-03-29T01:31:37.516Z,99.99
2019-03-29T01:32:37.471Z,99.99
2019-03-29T01:33:37.415Z,99.99
2019-03-29T01:34:37.375Z,99.99
2019-03-29T01:35:37.320Z,99.99
2019-03-29T01:36:37.286Z,99.99
2019-03-29T01:37:37.226Z,99.99
2019-03-29T01:38:37.192Z,99.99
2019-03-29T01:39:37.139Z,99.99
2019-03-29T01:40:37.092Z,99.99
2019-03-29T01:41:37.061Z,99.99
2019-03-29T01:42:37.003Z,99.99
2019-03-29T01:43:36.963Z,99.99
2019-03-29T01:44:36.916Z,99.99
2019-03-29T01:45:36.869Z,99.99
2019-03-29T01:46:37.917Z,99.99
2019-03-29T01:47:36.755Z,99.99
2019-03-29T01:48:36.729Z,99.99
2019-03-29T01:49:36.674Z,99.99
2019-03-29T01:50:36.626Z,99.99
2019-03-29T01:51:36.586Z,99.99
2019-03-29T01:52:36.539Z,99.99
2019-03-29T01:53:37.277Z,99.99
2019-03-29T01:54:36.437Z,99.99
2019-03-29T01:55:36.377Z,99.99
2019-03-29T01:56:36.338Z,99.99
2019-03-29T01:57:36.304Z,99.99
2019-03-29T01:58:36.248Z,99.99
2019-03-29T01:59:36.202Z,99.99
2019-03-29T02:00:36.513Z,99.99
2019-03-29T02:01:36.107Z,99.99
2019-03-29T02:02:36.067Z,99.99
2019-03-29T02:03:35.999Z,99.99
2019-03-29T02:04:35.952Z,99.99
2019-03-29T02:05:35.917Z,99.99
2019-03-29T02:06:35.858Z,99.99
2019-03-29T02:07:35.811Z,99.99
2019-03-29T02:08:37.122Z,99.99
2019-03-29T02:09:35.724Z,99.99
2019-03-29T02:10:35.676Z,99.99
2019-03-29T02:11:35.629Z,99.99
2019-03-29T02:12:35.587Z,99.99
2019-03-29T02:13:35.547Z,99.99
2019-03-29T02:14:35.493Z,99.99
2019-03-29T02:15:35.441Z,99.99
2019-03-29T02:16:35.386Z,99.99
2019-03-29T02:17:35.359Z,99.99
2019-03-29T02:18:35.300Z,99.99
2019-03-29T02:19:35.250Z,99.99
2019-03-29T02:20:35.217Z,99.99
2019-03-29T02:21:35.150Z,99.99
2019-03-29T02:22:35.123Z,99.99
2019-03-29T02:23:35.069Z,99.99
2019-03-29T02:24:35.009Z,99.99
2019-03-29T02:25:34.984Z,99.99
2019-03-29T02:26:35.131Z,99.99
2019-03-29T02:27:34.868Z,99.99
2019-03-29T02:28:34.832Z,99.99
2019-03-29T02:29:34.864Z,99.99
2019-03-29T02:30:34.739Z,99.99
2019-03-29T02:31:34.692Z,99.99
2019-03-29T02:32:34.630Z,99.99
2019-03-29T02:33:34.604Z,99.99
2019-03-29T02:34:34.550Z,99.99
2019-03-29T02:35:34.611Z,99.99
2019-03-29T02:36:34.933Z,99.99
2019-03-29T02:37:34.407Z,99.99
2019-03-29T02:38:34.348Z,99.99
2019-03-29T02:39:34.313Z,99.99
2019-03-29T02:40:34.267Z,99.99
2019-03-29T02:41:34.214Z,99.99
2019-03-29T02:42:34.181Z,99.99
2019-03-29T02:43:34.120Z,99.99
2019-03-29T02:44:34.962Z,99.99
2019-03-29T02:45:34.026Z,99.99
2019-03-29T02:46:33.983Z,99.99
2019-03-29T02:47:33.943Z,99.99
2019-03-29T02:48:33.876Z,99.99
2019-03-29T02:49:33.833Z,99.99
2019-03-29T02:50:33.781Z,99.99
2019-03-29T02:51:33.754Z,99.99
2019-03-29T02:52:33.691Z,99.99
2019-03-29T02:53:33.641Z,99.99
2019-03-29T02:54:33.609Z,99.99
2019-03-29T02:55:33.554Z,99.99
2019-03-29T02:56:33.505Z,99.99
2019-03-29T02:57:33.471Z,99.99
2019-03-29T02:58:33.412Z,99.99
2019-03-29T02:59:33.370Z,99.99
2019-03-29T03:00:33.330Z,99.99
2019-03-29T03:01:33.265Z,99.99
2019-03-29T03:02:33.226Z,99.99
2019-03-29T03:03:33.193Z,99.99
2019-03-29T03:04:33.141Z,99.99
2019-03-29T03:05:33.095Z,99.99
2019-03-29T03:06:33.051Z,99.99
2019-03-29T03:07:32.980Z,99.99
2019-03-29T03:08:33.295Z,99.99
2019-03-29T03:09:32.910Z,99.99
2019-03-29T03:10:32.847Z,99.99
2019-03-29T03:11:32.804Z,99.99
2019-03-29T03:12:32.756Z,99.99
2019-03-29T03:13:32.725Z,99.99
2019-03-29T03:14:32.670Z,99.99
2019-03-29T03:15:32.609Z,99.99
2019-03-29T03:16:32.568Z,99.99
2019-03-29T03:17:32.508Z,99.99
2019-03-29T03:18:32.474Z,99.99
2019-03-29T03:19:32.421Z,99.99
2019-03-29T03:20:37.039Z,99.99
2019-03-29T03:21:32.361Z,99.99
2019-03-29T03:22:32.284Z,99.99
2019-03-29T03:23:32.235Z,99.99
2019-03-29T03:24:32.191Z,99.99
2019-03-29T03:25:32.151Z,99.99
2019-03-29T03:26:32.088Z,99.99
2019-03-29T03:27:32.042Z,99.99
2019-03-29T03:28:32.012Z,99.99
2019-03-29T03:29:31.941Z,99.99
2019-03-29T03:30:32.006Z,99.99
2019-03-29T03:31:31.860Z,99.99
2019-03-29T03:32:31.817Z,99.99
2019-03-29T03:33:31.760Z,99.99
2019-03-29T03:34:31.705Z,99.99
2019-03-29T03:35:31.682Z,99.99
2019-03-29T03:36:31.623Z,99.99
2019-03-29T03:37:31.581Z,99.99
2019-03-29T03:38:31.530Z,99.99
2019-03-29T03:39:32.715Z,99.99
2019-03-29T03:40:31.430Z,99.99
2019-03-29T03:41:31.382Z,99.99
2019-03-29T03:42:31.340Z,99.99
2019-03-29T03:43:31.304Z,99.99
2019-03-29T03:44:31.246Z,99.99
2019-03-29T03:45:31.193Z,99.99
2019-03-29T03:46:31.146Z,99.99
2019-03-29T03:47:31.105Z,99.99
2019-03-29T03:48:31.064Z,99.99
2019-03-29T03:49:31.018Z,99.99
2019-03-29T03:50:30.958Z,99.99
2019-03-29T03:51:30.923Z,99.99
2019-03-29T03:52:30.874Z,99.99
2019-03-29T03:53:30.824Z,99.99
2019-03-29T03:54:30.762Z,99.99
2019-03-29T03:55:30.729Z,99.99
2019-03-29T03:56:30.675Z,99.99
2019-03-29T03:57:30.618Z,99.99
2019-03-29T03:58:30.586Z,99.99
2019-03-29T03:59:30.528Z,99.99
2019-03-29T04:00:30.492Z,99.99
2019-03-29T04:01:30.451Z,99.99
2019-03-29T04:02:30.384Z,99.99
2019-03-29T04:03:30.350Z,99.99
2019-03-29T04:04:30.310Z,99.99
2019-03-29T04:05:30.256Z,99.99
2019-03-29T04:06:30.214Z,99.99
2019-03-29T04:07:30.169Z,99.99
2019-03-29T04:08:30.117Z,99.99
2019-03-29T04:09:48.023Z,99.99
2019-03-29T04:10:30.033Z,99.99
2019-03-29T04:11:29.961Z,99.99
2019-03-29T04:12:29.925Z,99.99
2019-03-29T04:13:29.877Z,99.99
2019-03-29T04:14:29.818Z,99.99
2019-03-29T04:15:29.792Z,99.99
2019-03-29T04:16:29.743Z,99.99
2019-03-29T04:17:29.679Z,99.99
2019-03-29T04:18:29.635Z,99.99
2019-03-29T04:19:29.581Z,99.99
2019-03-29T04:20:29.541Z,99.99
2019-03-29T04:21:29.492Z,99.99
2019-03-29T04:22:29.439Z,99.99
2019-03-29T04:23:29.398Z,99.99
2019-03-29T04:24:29.364Z,99.99
2019-03-29T04:25:29.317Z,99.99
2019-03-29T04:26:29.269Z,99.99
2019-03-29T04:27:29.214Z,99.99
2019-03-29T04:28:29.175Z,99.99
2019-03-29T04:29:29.127Z,99.99
2019-03-29T04:30:29.076Z,99.99
2019-03-29T04:31:29.023Z,99.99
2019-03-29T04:32:28.982Z,99.99
2019-03-29T04:33:28.930Z,99.99
2019-03-29T04:34:28.877Z,99.99
2019-03-29T04:35:28.843Z,99.99
2019-03-29T04:36:28.775Z,99.99
2019-03-29T04:37:28.747Z,99.99
2019-03-29T04:38:28.693Z,99.99
2019-03-29T04:39:28.646Z,99.99
2019-03-29T04:40:28.592Z,99.99
2019-03-29T04:41:28.537Z,99.99
2019-03-29T04:42:28.517Z,99.99
2019-03-29T04:43:28.455Z,99.99
2019-03-29T04:44:28.395Z,99.99
2019-03-29T04:45:28.367Z,99.99
2019-03-29T04:46:28.313Z,99.99
2019-03-29T04:47:28.275Z,99.99
2019-03-29T04:48:28.218Z,99.99
2019-03-29T04:49:28.170Z,99.99
2019-03-29T04:50:28.118Z,99.99
2019-03-29T04:51:28.082Z,99.99
2019-03-29T04:52:28.014Z,99.99
2019-03-29T04:53:27.967Z,99.99
2019-03-29T04:54:27.921Z,99.99
2019-03-29T04:55:27.874Z,99.99
2019-03-29T04:56:27.844Z,99.99
2019-03-29T04:57:27.791Z,99.99
2019-03-29T04:58:27.744Z,99.99
2019-03-29T04:59:27.691Z,99.99
2019-03-29T05:00:27.642Z,99.99
2019-03-29T05:01:27.619Z,99.99
2019-03-29T05:02:27.562Z,99.99
2019-03-29T05:03:27.505Z,99.99
2019-03-29T05:04:27.452Z,99.99
2019-03-29T05:05:27.405Z,99.99
2019-03-29T05:06:27.349Z,99.99
2019-03-29T05:07:27.310Z,99.99
2019-03-29T05:08:27.277Z,99.99
2019-03-29T05:09:27.219Z,99.99
2019-03-29T05:10:27.160Z,99.99
2019-03-29T05:11:27.132Z,99.99
2019-03-29T05:12:27.084Z,99.99
2019-03-29T05:13:27.036Z,99.99
2019-03-29T05:14:26.982Z,99.99
2019-03-29T05:15:26.920Z,99.99
2019-03-29T05:16:26.874Z,99.99
2019-03-29T05:17:26.829Z,99.99
2019-03-29T05:18:26.799Z,99.99
2019-03-29T05:19:26.742Z,99.99
2019-03-29T05:20:26.706Z,99.99
2019-03-29T05:21:26.656Z,99.99
2019-03-29T05:22:26.596Z,99.99
2019-03-29T05:23:26.540Z,99.99
2019-03-29T05:24:26.500Z,99.99
2019-03-29T05:25:26.454Z,99.99
2019-03-29T05:26:26.418Z,99.99
2019-03-29T05:27:26.363Z,99.99
2019-03-29T05:28:26.303Z,99.99
2019-03-29T05:29:26.271Z,99.99
2019-03-29T05:30:26.207Z,99.99
2019-03-29T05:31:26.159Z,99.99
2019-03-29T05:32:26.120Z,99.99
2019-03-29T05:33:26.067Z,99.99
2019-03-29T05:34:26.031Z,99.99
2019-03-29T05:35:25.969Z,99.99
2019-03-29T05:36:25.942Z,99.99
2019-03-29T05:37:25.887Z,99.99
2019-03-29T05:38:25.850Z,99.99
2019-03-29T05:39:25.787Z,99.99
2019-03-29T05:40:34.740Z,99.99
2019-03-29T05:41:25.704Z,99.99
2019-03-29T05:42:25.636Z,99.99
2019-03-29T05:43:25.601Z,99.99
2019-03-29T05:44:25.561Z,99.99
2019-03-29T05:45:25.495Z,99.99
2019-03-29T05:46:25.457Z,99.99
2019-03-29T05:47:25.426Z,99.99
2019-03-29T05:48:25.370Z,99.99
2019-03-29T05:49:25.310Z,99.99
2019-03-29T05:50:25.271Z,99.99
2019-03-29T05:51:25.221Z,99.99
2019-03-29T05:52:25.161Z,99.99
2019-03-29T05:53:25.120Z,99.99
2019-03-29T05:54:25.082Z,99.99
2019-03-29T05:55:32.547Z,99.99
2019-03-29T05:56:24.969Z,99.99
2019-03-29T05:57:24.930Z,99.99
2019-03-29T05:58:24.882Z,99.99
2019-03-29T05:59:24.848Z,99.99
2019-03-29T06:00:24.792Z,99.99
2019-03-29T06:01:24.732Z,99.99
2019-03-29T06:02:24.698Z,99.99
2019-03-29T06:03:24.658Z,99.99
2019-03-29T06:04:24.610Z,99.99
2019-03-29T06:05:24.565Z,99.99
2019-03-29T06:06:24.507Z,99.99
2019-03-29T06:07:24.461Z,99.99
2019-03-29T06:08:24.419Z,99.99
2019-03-29T06:09:24.366Z,99.99
2019-03-29T06:10:24.317Z,99.99
2019-03-29T06:11:24.272Z,99.99
2019-03-29T06:12:24.222Z,99.99
2019-03-29T06:13:24.172Z,99.99
2019-03-29T06:14:24.124Z,99.99
2019-03-29T06:15:24.073Z,99.99
2019-03-29T06:16:24.029Z,99.99
2019-03-29T06:17:23.992Z,99.99
2019-03-29T06:18:23.933Z,99.99
2019-03-29T06:19:23.896Z,99.99
2019-03-29T06:20:23.841Z,99.99
2019-03-29T06:21:23.794Z,99.99
2019-03-29T06:22:23.753Z,99.99
2019-03-29T06:23:23.705Z,99.99
2019-03-29T06:24:23.636Z,99.99
2019-03-29T06:25:23.609Z,99.99
2019-03-29T06:26:23.555Z,99.99
2019-03-29T06:27:23.515Z,99.99
2019-03-29T06:28:23.448Z,99.99
2019-03-29T06:29:23.407Z,99.99
2019-03-29T06:30:23.353Z,99.99
2019-03-29T06:31:23.317Z,99.99
2019-03-29T06:32:23.269Z,99.99
2019-03-29T06:33:23.218Z,99.99
2019-03-29T06:34:23.193Z,99.99
2019-03-29T06:35:23.114Z,99.99
2019-03-29T06:36:23.074Z,99.99
2019-03-29T06:37:23.027Z,99.99
2019-03-29T06:38:22.973Z,99.99
2019-03-29T06:39:22.925Z,99.99
2019-03-29T06:40:22.878Z,99.99
2019-03-29T06:41:22.829Z,99.99
2019-03-29T06:42:22.789Z,99.99
2019-03-29T06:43:22.734Z,99.99
2019-03-29T06:44:22.694Z,99.99
2019-03-29T06:45:22.652Z,99.99
2019-03-29T06:46:22.594Z,99.99
2019-03-29T06:47:22.557Z,99.99
2019-03-29T06:48:22.505Z,99.99
2019-03-29T06:49:22.450Z,99.99
2019-03-29T06:50:22.403Z,99.99
2019-03-29T06:51:22.376Z,99.99
2019-03-29T06:52:22.328Z,99.99
2019-03-29T06:53:22.280Z,99.99
2019-03-29T06:54:22.227Z,99.99
2019-03-29T06:55:22.186Z,99.99
2019-03-29T06:56:22.118Z,99.99
2019-03-29T06:57:22.078Z,99.99
2019-03-29T06:58:22.032Z,99.99
2019-03-29T06:59:21.983Z,99.99
2019-03-29T07:00:21.931Z,99.99
2019-03-29T07:01:21.884Z,99.99
2019-03-29T07:02:21.845Z,99.99
2019-03-29T07:03:21.794Z,99.99
2019-03-29T07:04:21.752Z,99.99
2019-03-29T07:05:21.702Z,99.99
2019-03-29T07:06:21.644Z,99.99
2019-03-29T07:07:21.597Z,99.99
2019-03-29T07:08:21.570Z,99.99
2019-03-29T07:09:21.509Z,99.99
2019-03-29T07:10:21.474Z,99.99
2019-03-29T07:11:21.407Z,99.99
2019-03-29T07:12:21.367Z,99.99
2019-03-29T07:13:21.325Z,99.99
2019-03-29T07:14:21.284Z,99.99
2019-03-29T07:15:21.217Z,99.99
2019-03-29T07:16:21.170Z,99.99
2019-03-29T07:17:21.122Z,99.99
2019-03-29T07:18:21.075Z,99.99
2019-03-29T07:19:21.034Z,99.99
2019-03-29T07:20:20.986Z,99.99
2019-03-29T07:21:22.108Z,99.99
2019-03-29T07:22:20.884Z,99.99
2019-03-29T07:23:20.857Z,99.99
2019-03-29T07:24:20.789Z,99.99
2019-03-29T07:25:20.755Z,99.99
2019-03-29T07:26:20.707Z,99.99
2019-03-29T07:27:20.654Z,99.99
2019-03-29T07:28:20.608Z,99.99
2019-03-29T07:29:20.559Z,99.99
2019-03-29T07:30:20.514Z,99.99
2019-03-29T07:31:20.470Z,99.99
2019-03-29T07:32:20.422Z,99.99
2019-03-29T07:33:20.375Z,99.99
2019-03-29T07:34:20.322Z,99.99
2019-03-29T07:35:20.280Z,99.99
2019-03-29T07:36:20.227Z,99.99
2019-03-29T07:37:20.185Z,99.99
2019-03-29T07:38:20.125Z,99.99
2019-03-29T07:39:20.097Z,99.99
2019-03-29T07:40:20.044Z,99.99
2019-03-29T07:41:31.106Z,99.99
2019-03-29T07:42:19.942Z,99.99
2019-03-29T07:43:19.907Z,99.99
2019-03-29T07:44:19.862Z,99.99
2019-03-29T07:45:19.793Z,99.99
2019-03-29T07:46:19.766Z,99.99
2019-03-29T07:47:19.698Z,99.99
2019-03-29T07:48:19.659Z,99.99
2019-03-29T07:49:19.602Z,99.99
2019-03-29T07:50:19.598Z,99.99
2019-03-29T07:51:19.522Z,99.99
2019-03-29T07:52:19.461Z,99.99
2019-03-29T07:53:19.421Z,99.99
2019-03-29T07:54:19.373Z,99.99
2019-03-29T07:55:19.330Z,99.99
2019-03-29T07:56:19.291Z,99.99
2019-03-29T07:57:19.230Z,99.99
2019-03-29T07:58:19.175Z,99.99
2019-03-29T07:59:19.134Z,99.99
2019-03-29T08:00:20.523Z,99.99
2019-03-29T08:01:19.056Z,99.99
2019-03-29T08:02:18.997Z,99.99
2019-03-29T08:03:21.202Z,99.99
2019-03-29T08:04:21.484Z,99.99
2019-03-29T08:05:18.843Z,99.99
2019-03-29T08:06:18.821Z,99.99
2019-03-29T08:07:27.243Z,99.99
2019-03-29T08:08:24.864Z,99.99
2019-03-29T08:09:22.678Z,99.99
2019-03-29T08:10:25.806Z,99.99
2019-03-29T08:11:25.966Z,99.99
2019-03-29T08:12:18.564Z,99.99
2019-03-29T08:13:18.469Z,99.99
2019-03-29T08:14:18.434Z,99.99
2019-03-29T08:15:18.367Z,99.99
2019-03-29T08:16:18.339Z,99.99
2019-03-29T08:17:18.284Z,99.99
2019-03-29T08:18:18.224Z,99.99
2019-03-29T08:19:18.198Z,99.99
2019-03-29T08:20:40.142Z,99.99
2019-03-29T08:21:18.088Z,99.99
2019-03-29T08:22:18.042Z,99.99
2019-03-29T08:23:17.998Z,99.99
2019-03-29T08:24:17.958Z,99.99
2019-03-29T08:25:17.913Z,99.99
2019-03-29T08:26:17.866Z,99.99
2019-03-29T08:27:17.816Z,99.99
2019-03-29T08:28:17.760Z,99.99
2019-03-29T08:29:17.725Z,99.99
2019-03-29T08:30:17.660Z,99.99
2019-03-29T08:31:17.625Z,99.99
2019-03-29T08:32:17.569Z,99.99
2019-03-29T08:33:17.522Z,99.99
2019-03-29T08:34:17.481Z,99.99
2019-03-29T08:35:17.429Z,99.99
2019-03-29T08:36:17.373Z,99.99
2019-03-29T08:37:17.331Z,99.99
2019-03-29T08:38:17.272Z,99.99
2019-03-29T08:39:27.738Z,99.99
2019-03-29T08:40:17.183Z,99.99
2019-03-29T08:41:17.148Z,99.99
2019-03-29T08:42:18.710Z,99.99
2019-03-29T08:43:17.045Z,99.99
2019-03-29T08:44:16.991Z,99.99
2019-03-29T08:45:16.951Z,99.99
2019-03-29T08:46:16.905Z,99.99
2019-03-29T08:47:16.848Z,99.99
2019-03-29T08:48:16.807Z,99.99
2019-03-29T08:49:17.247Z,99.99
2019-03-29T08:50:20.426Z,99.99
2019-03-29T08:51:16.672Z,99.99
2019-03-29T08:52:16.623Z,99.99
2019-03-29T08:53:16.568Z,99.99
2019-03-29T08:54:16.522Z,99.99
2019-03-29T08:55:17.706Z,99.99
2019-03-29T08:56:16.426Z,99.99
2019-03-29T08:57:16.378Z,99.99
2019-03-29T08:58:16.332Z,99.99
2019-03-29T08:59:17.579Z,99.99
2019-03-29T09:00:16.237Z,99.99
2019-03-29T09:01:19.118Z,99.99
2019-03-29T09:02:16.134Z,99.99
2019-03-29T09:03:16.099Z,99.99
2019-03-29T09:04:16.031Z,99.99
2019-03-29T09:05:15.985Z,99.99
2019-03-29T09:06:15.949Z,99.99
2019-03-29T09:07:15.909Z,99.99
2019-03-29T09:08:15.843Z,99.99
2019-03-29T09:09:15.795Z,99.99
2019-03-29T09:10:15.766Z,99.99
2019-03-29T09:11:15.718Z,99.99
2019-03-29T09:12:15.659Z,99.99
2019-03-29T09:13:15.610Z,99.99
2019-03-29T09:14:15.558Z,99.99
2019-03-29T09:15:15.508Z,99.99
2019-03-29T09:16:15.473Z,99.99
2019-03-29T09:17:15.412Z,99.99
2019-03-29T09:18:15.373Z,99.99
2019-03-29T09:19:15.339Z,99.99
2019-03-29T09:20:15.278Z,99.99
2019-03-29T09:21:15.222Z,99.99
2019-03-29T09:22:15.196Z,99.99
2019-03-29T09:23:15.151Z,99.99
2019-03-29T09:24:21.739Z,99.99
2019-03-29T09:25:15.032Z,99.99
2019-03-29T09:26:14.985Z,99.99
2019-03-29T09:27:14.944Z,99.99
2019-03-29T09:28:14.898Z,99.99
2019-03-29T09:29:14.861Z,99.99
2019-03-29T09:30:14.803Z,99.99
2019-03-29T09:31:14.758Z,99.99
2019-03-29T09:32:14.699Z,99.99
2019-03-29T09:33:14.661Z,99.99
2019-03-29T09:34:14.623Z,99.99
2019-03-29T09:35:14.578Z,99.99
2019-03-29T09:36:14.517Z,99.99
2019-03-29T09:37:14.473Z,99.99
2019-03-29T09:38:14.430Z,99.99
2019-03-29T09:39:14.386Z,99.99
2019-03-29T09:40:14.318Z,99.99
2019-03-29T09:41:14.270Z,99.99
2019-03-29T09:42:27.780Z,99.99
2019-03-29T09:43:14.176Z,99.99
2019-03-29T09:44:14.142Z,99.99
2019-03-29T09:45:14.101Z,99.99
2019-03-29T09:46:14.040Z,99.99
2019-03-29T09:47:13.993Z,99.99
2019-03-29T09:48:13.962Z,99.99
2019-03-29T09:49:13.898Z,99.99
2019-03-29T09:50:13.845Z,99.99
2019-03-29T09:51:13.821Z,99.99
2019-03-29T09:52:13.750Z,99.99
2019-03-29T09:53:13.722Z,99.99
2019-03-29T09:54:13.654Z,99.99
2019-03-29T09:55:13.668Z,99.99
2019-03-29T09:56:13.587Z,99.99
2019-03-29T09:57:15.509Z,99.99
2019-03-29T09:58:16.359Z,99.99
2019-03-29T09:59:16.291Z,99.99
2019-03-29T10:00:20.888Z,99.99
2019-03-29T10:01:13.364Z,99.99
2019-03-29T10:02:13.315Z,99.99
2019-03-29T10:03:13.240Z,99.99
2019-03-29T10:04:13.197Z,99.99
2019-03-29T10:05:13.134Z,99.99
2019-03-29T10:06:15.345Z,99.99
2019-03-29T10:07:13.046Z,99.99
2019-03-29T10:08:13.013Z,99.99
2019-03-29T10:09:12.968Z,99.99
2019-03-29T10:10:13.114Z,99.99
2019-03-29T10:11:12.851Z,99.99
2019-03-29T10:12:12.829Z,99.99
2019-03-29T10:13:12.757Z,99.99
2019-03-29T10:14:12.712Z,99.74
2019-03-29T10:15:12.685Z,96.70
2019-03-29T10:16:12.633Z,94.05
2019-03-29T10:17:12.584Z,92.02
2019-03-29T10:18:12.525Z,91.88
2019-03-29T10:19:12.501Z,90.28
2019-03-29T10:20:12.447Z,87.81
2019-03-29T10:21:12.387Z,84.19
2019-03-29T10:22:12.349Z,82.62
2019-03-29T10:23:12.321Z,80.98
2019-03-29T10:24:12.259Z,81.23
2019-03-29T10:25:19.763Z,82.06
2019-03-29T10:26:12.164Z,83.66
2019-03-29T10:27:12.134Z,86.28
2019-03-29T10:28:12.096Z,87.92
2019-03-29T10:29:12.050Z,90.19
2019-03-29T10:30:11.996Z,91.60
2019-03-29T10:31:11.960Z,91.88
2019-03-29T10:32:11.895Z,92.94
2019-03-29T10:33:11.929Z,94.15
2019-03-29T10:34:11.804Z,95.02
2019-03-29T10:35:11.772Z,95.16
2019-03-29T10:36:11.735Z,96.99
2019-03-29T10:37:11.691Z,98.97
2019-03-29T10:38:11.635Z,99.54
2019-03-29T10:39:11.598Z,99.84
2019-03-29T10:40:11.532Z,99.99
2019-03-29T10:41:11.502Z,99.99
2019-03-29T10:42:11.458Z,99.99
2019-03-29T10:43:11.418Z,99.99
2019-03-29T10:44:11.388Z,99.98
2019-03-29T10:45:11.316Z,99.99
2019-03-29T10:46:11.268Z,99.99
2019-03-29T10:47:11.232Z,99.99
2019-03-29T10:48:11.165Z,99.99
2019-03-29T10:49:11.127Z,99.99
2019-03-29T10:50:11.086Z,99.98
2019-03-29T10:51:11.050Z,97.81
2019-03-29T10:52:10.989Z,94.87
2019-03-29T10:53:10.954Z,94.15
2019-03-29T10:54:10.904Z,94.54
2019-03-29T10:55:10.870Z,94.92
2019-03-29T10:56:10.820Z,94.34
2019-03-29T10:57:10.775Z,94.34
2019-03-29T10:58:10.713Z,94.34
2019-03-29T10:59:10.661Z,94.92
2019-03-29T11:00:10.615Z,95.40
2019-03-29T11:01:10.585Z,96.03
2019-03-29T11:02:10.577Z,96.12
2019-03-29T11:03:10.483Z,97.19
2019-03-29T11:04:10.450Z,97.62
2019-03-29T11:05:10.405Z,97.81
2019-03-29T11:06:10.360Z,97.96
2019-03-29T11:07:10.294Z,96.75
2019-03-29T11:08:11.954Z,94.82
2019-03-29T11:09:10.221Z,92.65
2019-03-29T11:10:10.175Z,90.33
2019-03-29T11:11:10.109Z,85.59
2019-03-29T11:12:10.069Z,85.01
2019-03-29T11:13:14.369Z,84.09
2019-03-29T11:14:09.980Z,83.61
2019-03-29T11:15:09.938Z,84.09
2019-03-29T11:16:09.896Z,83.41
2019-03-29T11:17:09.840Z,83.22
2019-03-29T11:18:09.997Z,83.37
2019-03-29T11:19:09.747Z,84.82
2019-03-29T11:20:09.710Z,84.48
2019-03-29T11:21:09.665Z,84.97
2019-03-29T11:22:09.637Z,85.26
2019-03-29T11:23:09.584Z,85.55
2019-03-29T11:24:09.639Z,84.97
2019-03-29T11:25:09.484Z,84.88
2019-03-29T11:26:09.444Z,86.08
2019-03-29T11:27:09.400Z,86.47
2019-03-29T11:28:09.353Z,87.01
2019-03-29T11:29:09.286Z,87.78
2019-03-29T11:30:09.262Z,88.17
2019-03-29T11:31:09.214Z,88.75
2019-03-29T11:32:09.150Z,89.47
2019-03-29T11:33:09.121Z,89.47
2019-03-29T11:34:09.059Z,89.67
2019-03-29T11:35:09.026Z,89.47
2019-03-29T11:36:08.967Z,89.09
2019-03-29T11:37:08.988Z,89.09
2019-03-29T11:38:08.883Z,90.72
2019-03-29T11:39:08.837Z,91.02
2019-03-29T11:40:08.799Z,90.63
2019-03-29T11:41:08.760Z,91.02
2019-03-29T11:42:08.707Z,91.74
2019-03-29T11:43:08.651Z,91.36
2019-03-29T11:44:08.607Z,91.16
2019-03-29T11:45:08.571Z,91.64
2019-03-29T11:46:08.520Z,91.74
2019-03-29T11:47:08.479Z,91.83
2019-03-29T11:48:09.632Z,91.55
2019-03-29T11:49:08.393Z,91.88
2019-03-29T11:50:08.337Z,90.00
2019-03-29T11:51:18.608Z,91.36
2019-03-29T11:52:08.236Z,92.03
2019-03-29T11:53:08.222Z,92.13
2019-03-29T11:54:08.158Z,91.45
2019-03-29T11:55:08.097Z,91.74
2019-03-29T11:56:08.073Z,91.16
2019-03-29T11:57:08.015Z,91.45
2019-03-29T11:58:07.954Z,91.06
2019-03-29T11:59:07.916Z,91.74
2019-03-29T12:00:07.892Z,91.74
2019-03-29T12:01:07.830Z,92.90
2019-03-29T12:02:07.782Z,91.64
2019-03-29T12:03:09.442Z,91.02
2019-03-29T12:04:07.678Z,92.08
2019-03-29T12:05:07.661Z,92.18
2019-03-29T12:06:07.595Z,92.08
2019-03-29T12:07:07.538Z,93.04
2019-03-29T12:08:07.513Z,92.85
2019-03-29T12:09:07.454Z,92.76
2019-03-29T12:10:07.412Z,92.66
2019-03-29T12:11:07.375Z,92.90
2019-03-29T12:12:07.328Z,92.03
2019-03-29T12:13:07.275Z,92.13
2019-03-29T12:14:07.233Z,92.80
2019-03-29T12:15:07.176Z,92.32
2019-03-29T12:16:07.121Z,91.93
2019-03-29T12:17:07.091Z,92.71
2019-03-29T12:18:07.039Z,91.83
2019-03-29T12:19:06.993Z,91.93
2019-03-29T12:20:06.963Z,91.06
2019-03-29T12:21:06.918Z,91.55
2019-03-29T12:22:06.845Z,91.64
2019-03-29T12:23:06.826Z,92.03
2019-03-29T12:24:06.756Z,91.36
2019-03-29T12:25:06.728Z,91.11
2019-03-29T12:26:06.679Z,91.40
2019-03-29T12:27:06.617Z,91.11
2019-03-29T12:28:06.567Z,90.97
2019-03-29T12:29:06.517Z,91.30
2019-03-29T12:30:06.470Z,91.16
2019-03-29T12:31:06.428Z,91.45
2019-03-29T12:32:06.395Z,91.45
2019-03-29T12:33:06.356Z,93.38
2019-03-29T12:34:06.303Z,93.09
2019-03-29T12:35:06.238Z,93.57
2019-03-29T12:36:06.190Z,93.57
2019-03-29T12:37:06.168Z,93.86
2019-03-29T12:38:06.106Z,93.96
2019-03-29T12:39:06.063Z,93.09
2019-03-29T12:40:06.018Z,93.28
2019-03-29T12:41:05.966Z,92.51
2019-03-29T12:42:05.914Z,93.57
2019-03-29T12:43:05.876Z,93.52
2019-03-29T12:44:05.819Z,93.43
2019-03-29T12:45:05.781Z,93.81
2019-03-29T12:46:05.751Z,94.01
2019-03-29T12:47:05.694Z,93.62
2019-03-29T12:48:05.655Z,94.29
2019-03-29T12:49:05.599Z,93.81
2019-03-29T12:50:05.548Z,94.63
2019-03-29T12:51:05.496Z,93.66
2019-03-29T12:52:05.456Z,94.44